Princimar Pride — V7XL5 — position and weather

sailwx.info

Track history (hours):
 
Tides and Currents Weather Stations Pressure Air Temp Water Temp Dewpoint Dewpoint Depression Visibility Wind Speed Wind Dir Waves Ship Positions

Princimar Pride

Last reported at 2015-Jul-26 05:34 UTC. Time now 2015-Aug-29 07:23 UTC.
Position N 03°06' E 100°44'.
Warning: this ship's position is 34 days out of date.

Length 274 m; draft 9.2 m.

Type: Ship. MMSI: 538004509.

Date/timePositionNaut miles runAvg speedWind from/ knotsBaromVisibWave heightAir tempDewpointWater temp
2015-Jul-26 05:34N 03°06' E 100°44'2612.9
2015-Jul-26 03:34N 02°48' E 101°03'2713.3
2015-Jul-26 01:34N 02°37' E 101°28'2814.1
2015-Jul-25 23:32N 02°19' E 101°50'130 8.6
2015-Jul-25 08:24N 01°12' E 103°41'0 0.0
2015-Jul-25 05:30N 01°12' E 103°41'0 0.2
2015-Jul-25 04:30N 01°11' E 103°41'0 0.0
2015-Jul-25 03:18N 01°11' E 103°41'0 0.0
2015-Jul-25 02:18N 01°11' E 103°41'0 0.1
2015-Jul-25 00:12N 01°12' E 103°41'1 1.0
2015-Jul-24 23:33N 01°12' E 103°41'2 0.0
2015-Jul-23 10:33N 01°14' E 103°41'2 0.3
2015-Jul-23 05:31N 01°13' E 103°39'0 0.1
2015-Jul-23 03:31N 01°13' E 103°39'  
2015-Jul-19 10:28N 01°13' E 103°39'0 0.0
2015-Jul-17 16:19N 01°13' E 103°39'0 0.1
2015-Jul-17 15:31N 01°13' E 103°39'0 0.0
2015-Jul-17 12:25N 01°13' E 103°39'0 0.0
2015-Jul-17 09:11N 01°13' E 103°39'14010.2
2015-Jul-16 19:29N 02°23' E 101°38'19 9.7
2015-Jul-16 17:33N 02°35' E 101°23'20 9.9
2015-Jul-16 15:34N 02°44' E 101°06'2110.4
2015-Jul-16 13:33N 02°54' E 100°47'2211.2
2015-Jul-16 11:33N 03°10' E 100°32'2412.0
2015-Jul-16 09:33N 03°28' E 100°16'  
Track history (hours):
 
Tides and Currents Weather Stations Pressure Air Temp Water Temp Dewpoint Dewpoint Depression Visibility Wind Speed Wind Dir Waves Ship Positions

Princimar Pride

Last reported at 2015-Jul-26 05:34 UTC. Time now 2015-Aug-29 07:23 UTC.
Position N 03°06' E 100°44'.
Warning: this ship's position is 34 days out of date.

Length 274 m; draft 9.2 m.

Type: Ship. MMSI: 538004509.

Date/timePositionNaut miles runAvg speedWind from/ knotsBaromVisibWave heightAir tempDewpointWater temp
2015-Jul-26 05:34N 03°06' E 100°44'2612.9
2015-Jul-26 03:34N 02°48' E 101°03'2713.3
2015-Jul-26 01:34N 02°37' E 101°28'2814.1
2015-Jul-25 23:32N 02°19' E 101°50'130 8.6
2015-Jul-25 08:24N 01°12' E 103°41'0 0.0
2015-Jul-25 05:30N 01°12' E 103°41'0 0.2
2015-Jul-25 04:30N 01°11' E 103°41'0 0.0
2015-Jul-25 03:18N 01°11' E 103°41'0 0.0
2015-Jul-25 02:18N 01°11' E 103°41'0 0.1
2015-Jul-25 00:12N 01°12' E 103°41'1 1.0
2015-Jul-24 23:33N 01°12' E 103°41'2 0.0
2015-Jul-23 10:33N 01°14' E 103°41'2 0.3
2015-Jul-23 05:31N 01°13' E 103°39'0 0.1
2015-Jul-23 03:31N 01°13' E 103°39'  
2015-Jul-19 10:28N 01°13' E 103°39'0 0.0
2015-Jul-17 16:19N 01°13' E 103°39'0 0.1
2015-Jul-17 15:31N 01°13' E 103°39'0 0.0
2015-Jul-17 12:25N 01°13' E 103°39'0 0.0
2015-Jul-17 09:11N 01°13' E 103°39'14010.2
2015-Jul-16 19:29N 02°23' E 101°38'19 9.7
2015-Jul-16 17:33N 02°35' E 101°23'20 9.9
2015-Jul-16 15:34N 02°44' E 101°06'2110.4
2015-Jul-16 13:33N 02°54' E 100°47'2211.2
2015-Jul-16 11:33N 03°10' E 100°32'2412.0
2015-Jul-16 09:33N 03°28' E 100°16'  

Dump ship's entire track history